Time;durP1;ratioP1;P1;durP2;ratioP2;P2;SDS_P1;SDS_P2;PMS_P1;PMS_P2;Temp;Humidity;BMP_temperature;BMP_pressure;BME280_temperature;BME280_humidity;BME280_pressure;Samples;Min_cycle;Max_cycle;Signal;HPM_P1;HPM_P2
2023/03/09 00:01:36;;;;;;;3.13;1.90;;;8.30;99.90;;;;;;480288;246;28285;-78
2023/03/09 00:03:37;;;;;;;2.27;1.80;;;8.30;99.90;;;;;;477076;248;27586;-79
2023/03/09 00:05:38;;;;;;;2.53;1.53;;;8.20;99.90;;;;;;480283;246;27735;-80
2023/03/09 00:07:39;;;;;;;1.60;1.40;;;8.20;99.90;;;;;;477093;248;27778;-78
2023/03/09 00:09:41;;;;;;;5.40;1.70;;;8.20;99.90;;;;;;480292;246;28054;-78
2023/03/09 00:11:42;;;;;;;5.80;2.20;;;8.20;99.90;;;;;;477080;248;28011;-78
2023/03/09 00:13:43;;;;;;;3.37;2.30;;;8.20;99.90;;;;;;480279;246;28028;-78
2023/03/09 00:15:49;;;;;;;2.33;1.70;;;8.20;99.90;;;;;;477081;248;27938;-78
2023/03/09 00:17:46;;;;;;;1.90;1.70;;;8.10;99.90;;;;;;479920;247;28108;-78
2023/03/09 00:19:47;;;;;;;2.37;1.90;;;8.10;99.90;;;;;;480277;247;28056;-78
2023/03/09 00:21:51;;;;;;;1.60;1.50;;;8.10;99.90;;;;;;477063;248;27665;-77
2023/03/09 00:23:50;;;;;;;1.50;1.40;;;8.10;99.90;;;;;;480091;247;27920;-78
2023/03/09 00:25:51;;;;;;;2.17;1.50;;;8.00;99.90;;;;;;480281;247;27893;-76
2023/03/09 00:27:53;;;;;;;2.07;1.73;;;8.00;99.90;;;;;;477073;248;28239;-78
2023/03/09 00:29:54;;;;;;;1.73;1.63;;;8.10;99.90;;;;;;480254;247;28019;-78
2023/03/09 00:31:55;;;;;;;1.60;1.50;;;8.00;99.90;;;;;;477093;248;27946;-78
2023/03/09 00:33:56;;;;;;;3.63;1.43;;;8.00;99.90;;;;;;480244;247;28549;-77
2023/03/09 00:35:57;;;;;;;2.20;1.50;;;8.00;99.90;;;;;;480267;247;28386;-78
2023/03/09 00:37:59;;;;;;;1.83;1.40;;;7.90;99.90;;;;;;477093;248;28340;-78
2023/03/09 00:40:00;;;;;;;1.97;1.80;;;8.00;99.90;;;;;;480238;246;27908;-78
2023/03/09 00:42:01;;;;;;;3.50;1.60;;;8.00;99.90;;;;;;477034;248;27800;-79
2023/03/09 00:44:02;;;;;;;3.00;1.80;;;7.90;99.90;;;;;;480214;246;27976;-78
2023/03/09 00:46:04;;;;;;;2.33;1.60;;;8.00;99.90;;;;;;477060;248;27936;-77
2023/03/09 00:48:05;;;;;;;1.90;1.80;;;8.00;99.90;;;;;;480270;246;27929;-78
2023/03/09 00:50:06;;;;;;;2.60;1.80;;;7.90;99.90;;;;;;477072;248;27656;-78
2023/03/09 00:52:07;;;;;;;2.00;1.80;;;8.00;99.90;;;;;;480273;246;27901;-79
2023/03/09 00:54:09;;;;;;;3.10;2.00;;;8.00;99.90;;;;;;477088;248;27794;-77
2023/03/09 00:56:10;;;;;;;2.70;2.20;;;8.00;99.90;;;;;;479944;247;27934;-78
2023/03/09 00:58:11;;;;;;;1.70;1.60;;;8.00;99.90;;;;;;477077;248;27885;-79
2023/03/09 01:00:12;;;;;;;2.10;1.73;;;8.00;99.90;;;;;;480260;246;28008;-78
2023/03/09 01:02:14;;;;;;;3.90;2.13;;;8.00;99.90;;;;;;477069;248;27756;-78
2023/03/09 01:04:15;;;;;;;2.80;2.20;;;8.00;99.90;;;;;;480083;247;27881;-77
2023/03/09 01:06:16;;;;;;;3.83;2.07;;;8.10;99.90;;;;;;480252;247;28820;-79
2023/03/09 01:08:17;;;;;;;2.50;2.10;;;8.10;99.90;;;;;;477070;247;28183;-78
2023/03/09 01:10:19;;;;;;;2.93;2.07;;;8.10;99.90;;;;;;480253;247;28549;-78
2023/03/09 01:12:20;;;;;;;2.03;1.80;;;8.10;99.90;;;;;;477066;248;28218;-78
2023/03/09 01:14:21;;;;;;;1.73;1.63;;;8.10;99.90;;;;;;480194;247;28390;-78
2023/03/09 01:16:22;;;;;;;1.93;1.67;;;8.10;99.90;;;;;;480253;247;27901;-79
2023/03/09 01:18:24;;;;;;;1.80;1.70;;;8.10;99.90;;;;;;480247;247;27946;-78
2023/03/09 01:20:25;;;;;;;1.73;1.57;;;8.10;99.90;;;;;;480277;247;27796;-78
2023/03/09 01:22:26;;;;;;;4.20;1.80;;;8.00;99.90;;;;;;477045;248;27429;-78
2023/03/09 01:24:27;;;;;;;2.33;1.83;;;8.10;99.90;;;;;;480238;247;27824;-78
2023/03/09 01:26:29;;;;;;;2.40;1.40;;;8.00;99.90;;;;;;477097;248;27912;-78
2023/03/09 01:28:30;;;;;;;2.63;1.73;;;8.00;99.90;;;;;;480265;246;27927;-77
2023/03/09 01:30:31;;;;;;;2.20;1.53;;;8.00;99.90;;;;;;477086;248;27513;-78
2023/03/09 01:32:32;;;;;;;2.10;1.77;;;8.00;99.90;;;;;;480275;246;27884;-78
2023/03/09 01:34:34;;;;;;;4.17;2.10;;;8.00;99.90;;;;;;477087;248;27874;-78
2023/03/09 01:36:35;;;;;;;1.97;1.50;;;8.00;99.90;;;;;;480278;246;28249;-78
2023/03/09 01:38:36;;;;;;;3.70;1.50;;;8.00;99.90;;;;;;477110;248;27875;-78
2023/03/09 01:40:37;;;;;;;3.17;1.47;;;8.00;99.90;;;;;;480264;246;27996;-78
2023/03/09 01:42:39;;;;;;;3.33;1.73;;;8.00;99.90;;;;;;476976;248;27556;-77
2023/03/09 01:44:40;;;;;;;1.77;1.60;;;8.00;99.90;;;;;;480198;247;27992;-77
2023/03/09 01:46:41;;;;;;;1.63;1.40;;;8.10;99.90;;;;;;480224;247;28415;-78
2023/03/09 01:48:43;;;;;;;1.80;1.70;;;8.00;99.90;;;;;;476861;248;28107;-78
2023/03/09 01:50:44;;;;;;;1.90;1.70;;;8.00;99.90;;;;;;480280;246;28257;-79
2023/03/09 01:52:45;;;;;;;2.73;1.70;;;8.00;99.90;;;;;;477079;247;28234;-77
2023/03/09 01:54:46;;;;;;;2.00;1.30;;;8.00;99.90;;;;;;479992;247;27989;-78
2023/03/09 01:56:47;;;;;;;8.13;1.77;;;8.00;99.90;;;;;;480216;247;27919;-78
2023/03/09 01:58:49;;;;;;;2.23;1.50;;;8.00;99.90;;;;;;476978;248;27803;-78
2023/03/09 02:00:50;;;;;;;1.30;1.20;;;8.00;99.90;;;;;;480234;246;27889;-79
2023/03/09 02:02:51;;;;;;;4.30;1.70;;;8.10;99.90;;;;;;477051;248;27669;-78
2023/03/09 02:04:52;;;;;;;1.70;1.60;;;8.00;99.90;;;;;;480223;247;27897;-77
2023/03/09 02:06:54;;;;;;;3.83;2.00;;;8.00;99.90;;;;;;477023;248;27957;-79
2023/03/09 02:08:55;;;;;;;2.03;1.80;;;8.00;99.90;;;;;;480269;247;27873;-79
2023/03/09 02:10:56;;;;;;;1.90;1.80;;;8.00;99.90;;;;;;477065;248;27665;-78
2023/03/09 02:12:57;;;;;;;2.10;2.00;;;8.00;99.90;;;;;;480244;246;27878;-77
2023/03/09 02:14:59;;;;;;;3.50;1.83;;;8.00;99.90;;;;;;477040;248;27846;-77
2023/03/09 02:17:00;;;;;;;2.80;2.07;;;7.90;99.90;;;;;;480229;246;27706;-77
2023/03/09 02:19:01;;;;;;;4.10;1.80;;;7.90;99.90;;;;;;477023;248;27936;-78
2023/03/09 02:21:02;;;;;;;4.93;1.87;;;7.90;99.90;;;;;;480279;246;28028;-78
2023/03/09 02:23:04;;;;;;;5.43;2.20;;;7.80;99.90;;;;;;477090;248;27936;-78
2023/03/09 02:25:05;;;;;;;2.90;1.80;;;7.80;99.90;;;;;;480234;247;28185;-78
2023/03/09 02:27:06;;;;;;;1.93;1.83;;;7.90;99.90;;;;;;477052;248;28212;-78
2023/03/09 02:29:07;;;;;;;4.53;1.80;;;7.90;99.90;;;;;;480233;246;28872;-77
2023/03/09 02:31:09;;;;;;;4.23;2.00;;;7.90;99.90;;;;;;477091;248;28177;-78
2023/03/09 02:33:10;;;;;;;2.63;2.07;;;7.80;99.90;;;;;;480256;246;27764;-77
2023/03/09 02:35:11;;;;;;;2.50;1.97;;;7.80;99.90;;;;;;477068;248;27814;-78
2023/03/09 02:37:12;;;;;;;2.73;1.60;;;7.80;99.90;;;;;;480203;247;27954;-77
2023/03/09 02:39:14;;;;;;;5.33;1.60;;;7.80;99.90;;;;;;477069;248;27752;-78
2023/03/09 02:41:15;;;;;;;6.77;1.90;;;7.70;99.90;;;;;;480265;246;27968;-77
2023/03/09 02:43:16;;;;;;;2.67;1.70;;;7.80;99.90;;;;;;477073;248;27766;-78
2023/03/09 02:45:17;;;;;;;2.40;1.60;;;7.80;99.90;;;;;;480235;246;28028;-78
2023/03/09 02:47:19;;;;;;;4.00;1.80;;;7.70;99.90;;;;;;477062;248;27511;-77
2023/03/09 02:49:20;;;;;;;3.27;1.60;;;7.70;99.90;;;;;;480218;245;27997;-78
2023/03/09 02:51:21;;;;;;;4.00;1.80;;;7.70;99.90;;;;;;477096;248;27785;-77
2023/03/09 02:53:22;;;;;;;1.70;1.60;;;7.70;99.90;;;;;;480298;246;28058;-78
2023/03/09 02:55:24;;;;;;;1.70;1.60;;;7.70;99.90;;;;;;477102;248;27869;-77
2023/03/09 02:57:25;;;;;;;4.30;2.13;;;7.70;99.90;;;;;;480225;246;27805;-77
2023/03/09 02:59:26;;;;;;;7.20;1.87;;;7.60;99.90;;;;;;477076;248;27804;-78
2023/03/09 03:01:27;;;;;;;8.43;1.73;;;7.70;99.90;;;;;;480241;246;28754;-77
2023/03/09 03:03:29;;;;;;;4.73;1.80;;;7.70;99.90;;;;;;477076;248;27955;-77
2023/03/09 03:05:30;;;;;;;4.97;1.50;;;7.60;99.90;;;;;;480181;247;28339;-78
2023/03/09 03:07:31;;;;;;;3.80;1.50;;;7.60;99.90;;;;;;477051;248;28467;-78
2023/03/09 03:09:32;;;;;;;3.13;1.70;;;7.70;99.90;;;;;;480198;246;28479;-77
2023/03/09 03:11:34;;;;;;;2.97;1.67;;;7.60;99.90;;;;;;476982;248;27829;-78
2023/03/09 03:13:35;;;;;;;4.73;1.80;;;7.70;99.90;;;;;;480194;246;27952;-77
2023/03/09 03:15:36;;;;;;;4.57;1.90;;;7.60;99.90;;;;;;476998;248;28034;-78
2023/03/09 03:17:37;;;;;;;4.57;1.70;;;7.60;99.90;;;;;;480178;246;28403;-77
2023/03/09 03:19:39;;;;;;;2.60;1.60;;;7.70;99.90;;;;;;477007;248;27836;-77
2023/03/09 03:21:40;;;;;;;3.10;2.30;;;7.70;99.90;;;;;;480242;246;27754;-77
2023/03/09 03:23:41;;;;;;;2.70;1.80;;;7.70;99.90;;;;;;477077;248;27458;-78
2023/03/09 03:25:42;;;;;;;5.30;2.20;;;7.70;99.90;;;;;;480221;246;28111;-77
2023/03/09 03:27:44;;;;;;;11.33;3.10;;;7.70;99.90;;;;;;477013;248;27880;-78
2023/03/09 03:29:45;;;;;;;6.10;2.50;;;7.70;99.90;;;;;;480207;246;28119;-77
2023/03/09 03:31:46;;;;;;;4.47;2.50;;;7.70;99.90;;;;;;477058;248;27768;-77
2023/03/09 03:33:47;;;;;;;5.70;2.43;;;7.70;99.90;;;;;;480275;246;27896;-77
2023/03/09 03:35:49;;;;;;;7.63;3.00;;;7.70;99.90;;;;;;477095;248;27597;-76
2023/03/09 03:37:50;;;;;;;4.73;2.30;;;7.70;99.90;;;;;;480277;247;28420;-76
2023/03/09 03:39:51;;;;;;;8.67;2.80;;;7.70;99.90;;;;;;477073;248;27930;-77
2023/03/09 03:41:52;;;;;;;6.43;2.40;;;7.70;99.90;;;;;;480246;246;29377;-77
2023/03/09 03:43:54;;;;;;;4.70;2.47;;;7.70;99.90;;;;;;477099;248;28331;-77
2023/03/09 03:45:55;;;;;;;5.53;2.70;;;7.70;99.90;;;;;;480270;246;28389;-78
2023/03/09 03:47:56;;;;;;;6.63;2.30;;;7.70;99.90;;;;;;477088;248;27855;-78
2023/03/09 03:49:57;;;;;;;6.93;3.00;;;7.70;99.90;;;;;;480259;246;27971;-78
2023/03/09 03:51:59;;;;;;;5.37;2.80;;;7.60;99.90;;;;;;477099;248;28114;-78
2023/03/09 03:54:00;;;;;;;7.80;2.67;;;7.60;99.90;;;;;;480273;246;27775;-77
2023/03/09 03:56:02;;;;;;;7.97;3.27;;;7.60;99.90;;;;;;477077;248;27802;-78
2023/03/09 03:58:02;;;;;;;8.00;2.90;;;7.60;99.90;;;;;;480200;247;27732;-78
2023/03/09 04:00:09;;;;;;;12.43;3.70;;;7.60;99.90;;;;;;480249;247;27938;-78
2023/03/09 04:02:05;;;;;;;12.03;2.80;;;7.60;99.90;;;;;;476652;249;27601;-78
2023/03/09 04:04:07;;;;;;;7.63;3.27;;;7.60;99.90;;;;;;480235;246;27944;-77
2023/03/09 04:06:07;;;;;;;9.20;3.03;;;7.60;99.90;;;;;;477066;248;27837;-78
2023/03/09 04:08:09;;;;;;;16.60;3.00;;;7.60;99.90;;;;;;480268;246;27751;-77
2023/03/09 04:10:10;;;;;;;7.80;3.07;;;7.60;99.90;;;;;;477096;248;27799;-77
2023/03/09 04:12:11;;;;;;;9.03;2.63;;;7.60;99.90;;;;;;480226;246;28448;-77
2023/03/09 04:14:12;;;;;;;15.87;3.17;;;7.60;99.90;;;;;;477080;248;28045;-77
2023/03/09 04:16:14;;;;;;;15.80;2.83;;;7.60;99.90;;;;;;480250;246;28273;-78
2023/03/09 04:18:15;;;;;;;12.43;3.10;;;7.60;99.90;;;;;;477092;248;28238;-77
2023/03/09 04:20:16;;;;;;;11.37;3.63;;;7.60;99.90;;;;;;480262;246;27743;-78
2023/03/09 04:22:17;;;;;;;10.63;2.70;;;7.60;99.90;;;;;;477042;247;27828;-77
2023/03/09 04:24:19;;;;;;;12.20;2.80;;;7.60;99.90;;;;;;480244;246;28075;-79
2023/03/09 04:26:20;;;;;;;9.23;3.73;;;7.70;99.90;;;;;;477106;248;27799;-78
2023/03/09 04:28:21;;;;;;;15.07;3.17;;;7.60;99.90;;;;;;477106;247;27790;-77
2023/03/09 04:30:22;;;;;;;10.00;3.23;;;7.50;99.90;;;;;;480302;246;27997;-78
2023/03/09 04:32:24;;;;;;;15.30;3.10;;;7.50;99.90;;;;;;477110;248;27883;-77
2023/03/09 04:34:25;;;;;;;14.73;3.83;;;7.50;99.90;;;;;;480270;246;28178;-78
2023/03/09 04:36:26;;;;;;;11.27;2.80;;;7.40;99.90;;;;;;477106;248;28616;-77
2023/03/09 04:38:27;;;;;;;10.97;3.20;;;7.50;99.90;;;;;;480299;246;28344;-78
2023/03/09 04:40:29;;;;;;;8.53;3.10;;;7.40;99.90;;;;;;477070;248;28194;-78
2023/03/09 04:42:30;;;;;;;8.33;2.97;;;7.40;99.90;;;;;;480227;246;28419;-77
2023/03/09 04:44:31;;;;;;;9.37;2.90;;;7.40;99.90;;;;;;477053;248;28014;-77
2023/03/09 04:46:32;;;;;;;11.13;3.30;;;7.40;99.90;;;;;;480275;246;28110;-77
2023/03/09 04:48:34;;;;;;;13.37;4.10;;;7.40;99.90;;;;;;477096;248;27525;-77
2023/03/09 04:50:35;;;;;;;10.80;3.20;;;7.40;99.90;;;;;;480256;246;28494;-77
2023/03/09 04:52:36;;;;;;;11.60;3.00;;;7.40;99.90;;;;;;477095;248;28285;-77
2023/03/09 04:54:39;;;;;;;7.57;3.37;;;7.50;99.90;;;;;;480253;246;28692;-77
2023/03/09 04:56:39;;;;;;;6.03;3.13;;;7.50;99.90;;;;;;476982;249;28710;-77
2023/03/09 04:58:40;;;;;;;6.37;3.00;;;7.50;99.90;;;;;;480259;246;27753;-77
2023/03/09 05:00:41;;;;;;;11.60;2.93;;;7.50;99.90;;;;;;477076;248;27817;-77
2023/03/09 05:02:42;;;;;;;11.63;3.20;;;7.50;99.90;;;;;;480250;246;27517;-77
2023/03/09 05:04:44;;;;;;;7.67;2.90;;;7.50;99.90;;;;;;477045;248;28353;-78
2023/03/09 05:06:46;;;;;;;19.73;3.30;;;7.50;99.90;;;;;;480245;247;28982;-78
2023/03/09 05:08:46;;;;;;;12.77;3.30;;;7.50;99.90;;;;;;477008;248;29136;-77
2023/03/09 05:10:47;;;;;;;12.43;3.87;;;7.50;99.90;;;;;;480275;246;28518;-78
2023/03/09 05:12:49;;;;;;;9.90;4.10;;;7.50;99.90;;;;;;477046;248;27815;-78
2023/03/09 05:14:50;;;;;;;19.10;4.17;;;7.50;99.90;;;;;;480192;246;27826;-77
2023/03/09 05:16:51;;;;;;;11.37;3.70;;;7.50;99.90;;;;;;477023;248;27587;-77
2023/03/09 05:18:52;;;;;;;15.10;3.80;;;7.40;99.90;;;;;;480210;246;27921;-78
2023/03/09 05:20:54;;;;;;;6.57;3.47;;;7.50;99.90;;;;;;477031;248;27829;-77
2023/03/09 05:22:55;;;;;;;13.23;4.23;;;7.50;99.90;;;;;;480247;246;28000;-77
2023/03/09 05:24:56;;;;;;;11.70;3.63;;;7.50;99.90;;;;;;477040;248;27913;-79
2023/03/09 05:26:57;;;;;;;13.93;4.10;;;7.50;99.90;;;;;;480257;246;27874;-78
2023/03/09 05:28:59;;;;;;;9.93;4.50;;;7.50;99.90;;;;;;477072;248;27928;-79
2023/03/09 05:31:00;;;;;;;19.90;4.30;;;7.50;99.90;;;;;;480260;246;27923;-78
2023/03/09 05:33:01;;;;;;;16.00;4.37;;;7.50;99.90;;;;;;477058;248;29039;-77
2023/03/09 05:35:02;;;;;;;9.67;3.80;;;7.50;99.90;;;;;;480247;246;28294;-77
2023/03/09 05:37:04;;;;;;;9.47;3.20;;;7.50;99.90;;;;;;477077;248;28335;-78
2023/03/09 05:39:05;;;;;;;9.57;3.60;;;7.60;99.90;;;;;;480267;246;28140;-77
2023/03/09 05:41:06;;;;;;;10.70;3.53;;;7.60;99.90;;;;;;477114;248;28242;-77
2023/03/09 05:43:07;;;;;;;11.30;3.30;;;7.60;99.90;;;;;;480276;246;27869;-77
2023/03/09 05:45:09;;;;;;;9.90;3.90;;;7.50;99.90;;;;;;477073;248;27808;-77
2023/03/09 05:47:10;;;;;;;11.27;3.10;;;7.60;99.90;;;;;;480270;246;28078;-78
2023/03/09 05:49:11;;;;;;;11.20;2.93;;;7.50;99.90;;;;;;477087;248;27895;-78
2023/03/09 05:51:12;;;;;;;15.30;3.60;;;7.50;99.90;;;;;;480258;246;27894;-78
2023/03/09 05:53:14;;;;;;;17.43;4.20;;;7.50;99.90;;;;;;477075;248;27877;-77
2023/03/09 05:55:15;;;;;;;16.50;3.97;;;7.60;99.90;;;;;;480255;246;28071;-77
2023/03/09 05:57:16;;;;;;;14.67;4.57;;;7.60;99.90;;;;;;477056;248;27944;-77
2023/03/09 05:59:17;;;;;;;7.27;2.93;;;7.60;99.90;;;;;;480256;246;28139;-77
2023/03/09 06:01:19;;;;;;;6.63;2.90;;;7.60;99.90;;;;;;477078;248;28559;-78
2023/03/09 06:03:20;;;;;;;21.93;3.53;;;7.60;99.90;;;;;;480246;246;28069;-77
2023/03/09 06:05:21;;;;;;;8.33;3.23;;;7.60;99.90;;;;;;477063;248;28356;-77
2023/03/09 06:07:22;;;;;;;15.80;4.53;;;7.50;99.90;;;;;;480246;246;28214;-77
2023/03/09 06:09:25;;;;;;;9.73;3.40;;;7.60;99.90;;;;;;477065;248;27562;-77
2023/03/09 06:11:25;;;;;;;8.23;3.10;;;7.60;99.90;;;;;;480212;247;27557;-77
2023/03/09 06:13:26;;;;;;;8.07;3.10;;;7.60;99.90;;;;;;477074;248;27763;-77
2023/03/09 06:15:27;;;;;;;11.83;3.63;;;7.60;99.90;;;;;;480249;246;27935;-77
2023/03/09 06:17:29;;;;;;;12.70;2.97;;;7.60;99.90;;;;;;477052;248;27571;-77
2023/03/09 06:19:30;;;;;;;11.00;3.37;;;7.60;99.90;;;;;;480237;246;28101;-78
2023/03/09 06:21:31;;;;;;;9.80;3.33;;;7.60;99.90;;;;;;480273;247;27937;-77
2023/03/09 06:23:35;;;;;;;10.37;2.90;;;7.50;99.90;;;;;;477046;248;27997;-77
2023/03/09 06:25:34;;;;;;;8.57;3.20;;;7.60;99.90;;;;;;480093;247;27906;-77
2023/03/09 06:27:35;;;;;;;13.87;2.50;;;7.60;99.90;;;;;;480226;247;27716;-77
2023/03/09 06:29:36;;;;;;;13.77;3.60;;;7.60;99.90;;;;;;477067;248;27859;-78
2023/03/09 06:31:37;;;;;;;15.07;3.47;;;7.60;99.90;;;;;;480274;246;28423;-77
2023/03/09 06:33:39;;;;;;;11.10;3.20;;;7.60;99.90;;;;;;477059;248;28021;-77
2023/03/09 06:35:40;;;;;;;10.57;3.30;;;7.60;99.90;;;;;;480233;246;28530;-77
2023/03/09 06:37:41;;;;;;;7.20;2.80;;;7.60;99.90;;;;;;477056;248;27713;-77
2023/03/09 06:39:43;;;;;;;9.50;2.90;;;7.60;99.90;;;;;;480260;247;27948;-77
2023/03/09 06:41:44;;;;;;;12.37;2.90;;;7.60;99.90;;;;;;477055;248;27678;-78
2023/03/09 06:43:45;;;;;;;14.20;2.97;;;7.60;99.90;;;;;;480237;246;27715;-77
2023/03/09 06:45:46;;;;;;;9.53;2.50;;;7.70;99.90;;;;;;477044;248;27395;-77
2023/03/09 06:47:47;;;;;;;9.60;2.53;;;7.60;99.90;;;;;;480225;246;27914;-77
2023/03/09 06:49:49;;;;;;;7.53;3.40;;;7.60;99.90;;;;;;477083;248;27828;-77
2023/03/09 06:51:50;;;;;;;11.50;2.57;;;7.60;99.90;;;;;;480242;246;28099;-78
2023/03/09 06:53:51;;;;;;;6.83;2.23;;;7.60;99.90;;;;;;477070;248;27880;-77
2023/03/09 06:55:52;;;;;;;5.40;2.13;;;7.60;99.90;;;;;;480237;246;28118;-78
2023/03/09 06:57:54;;;;;;;12.20;2.23;;;7.60;99.90;;;;;;477053;248;27663;-77
2023/03/09 06:59:55;;;;;;;7.03;2.10;;;7.60;99.90;;;;;;480218;246;28189;-78
2023/03/09 07:01:56;;;;;;;7.20;2.43;;;7.70;99.90;;;;;;477055;248;28382;-78
2023/03/09 07:03:57;;;;;;;5.17;2.30;;;7.60;99.90;;;;;;480245;246;28075;-77
2023/03/09 07:05:59;;;;;;;6.50;2.20;;;7.60;99.90;;;;;;477068;248;28640;-77
2023/03/09 07:08:00;;;;;;;8.03;2.17;;;7.70;99.90;;;;;;480258;246;28849;-77
2023/03/09 07:10:01;;;;;;;11.10;2.07;;;7.70;99.90;;;;;;477094;248;27855;-78
2023/03/09 07:12:02;;;;;;;6.80;2.20;;;7.70;99.90;;;;;;480280;246;27888;-78
2023/03/09 07:14:04;;;;;;;4.20;2.33;;;7.60;99.90;;;;;;477057;248;27540;-78
2023/03/09 07:16:05;;;;;;;12.97;2.23;;;7.70;99.90;;;;;;480196;247;28026;-77
2023/03/09 07:18:06;;;;;;;8.97;2.67;;;7.60;99.90;;;;;;477037;248;27878;-77
2023/03/09 07:20:07;;;;;;;5.93;2.40;;;7.70;99.90;;;;;;477076;247;27446;-78
2023/03/09 07:22:09;;;;;;;6.20;2.83;;;7.70;99.90;;;;;;480211;246;28039;-77
2023/03/09 07:24:10;;;;;;;10.13;2.50;;;7.60;99.90;;;;;;477071;248;27662;-77
2023/03/09 07:26:11;;;;;;;17.63;3.40;;;7.70;99.90;;;;;;480197;246;28077;-77
2023/03/09 07:28:12;;;;;;;10.10;2.73;;;7.70;99.90;;;;;;477061;248;27803;-77
2023/03/09 07:30:14;;;;;;;10.37;3.43;;;7.70;99.90;;;;;;480305;246;27505;-77
2023/03/09 07:32:15;;;;;;;11.37;2.77;;;7.70;99.90;;;;;;477126;248;28408;-78
2023/03/09 07:34:16;;;;;;;13.03;2.90;;;7.70;99.90;;;;;;480243;246;29426;-78
2023/03/09 07:36:17;;;;;;;10.43;3.30;;;7.70;99.90;;;;;;477069;248;28239;-78
2023/03/09 07:38:19;;;;;;;11.77;2.80;;;7.70;99.90;;;;;;480293;246;27866;-77
2023/03/09 07:40:20;;;;;;;10.83;2.40;;;7.70;99.90;;;;;;477090;248;27774;-77
2023/03/09 07:42:21;;;;;;;10.80;3.00;;;7.70;99.90;;;;;;480300;246;27899;-77
2023/03/09 07:44:22;;;;;;;13.10;2.90;;;7.70;99.90;;;;;;477074;248;27852;-77
2023/03/09 07:46:24;;;;;;;15.43;2.93;;;7.70;99.90;;;;;;480264;246;28072;-78
2023/03/09 07:48:25;;;;;;;12.50;3.83;;;7.70;99.90;;;;;;477073;248;27696;-77
2023/03/09 07:50:26;;;;;;;9.47;2.67;;;7.80;99.90;;;;;;480281;246;27877;-77
2023/03/09 07:52:30;;;;;;;13.70;3.37;;;7.80;99.90;;;;;;477092;248;27715;-77
2023/03/09 07:54:29;;;;;;;15.27;3.90;;;7.90;99.90;;;;;;480126;247;28063;-78
2023/03/09 07:56:30;;;;;;;12.27;3.47;;;7.90;99.90;;;;;;480267;247;28412;-78
2023/03/09 07:58:31;;;;;;;12.53;3.20;;;7.90;99.90;;;;;;477085;248;29212;-78
2023/03/09 08:00:32;;;;;;;15.93;3.07;;;7.90;99.90;;;;;;480292;246;28496;-77
2023/03/09 08:02:34;;;;;;;12.73;3.50;;;7.90;99.90;;;;;;477090;248;27697;-78
2023/03/09 08:04:35;;;;;;;15.40;3.20;;;7.90;99.90;;;;;;480264;246;27953;-78
2023/03/09 08:06:36;;;;;;;12.37;3.10;;;7.90;99.90;;;;;;477072;248;27835;-78
2023/03/09 08:08:37;;;;;;;15.80;3.80;;;7.90;99.90;;;;;;480249;246;27845;-78
2023/03/09 08:10:40;;;;;;;11.87;2.57;;;7.90;99.90;;;;;;477096;248;27678;-77
2023/03/09 08:12:40;;;;;;;10.50;2.87;;;7.90;99.90;;;;;;480256;246;28067;-78
2023/03/09 08:14:41;;;;;;;13.50;3.70;;;7.90;99.90;;;;;;477089;248;27870;-78
2023/03/09 08:16:42;;;;;;;12.70;3.33;;;7.90;99.90;;;;;;480261;246;27992;-77
2023/03/09 08:18:44;;;;;;;12.73;3.30;;;8.00;99.90;;;;;;476993;248;27884;-77
2023/03/09 08:20:45;;;;;;;14.53;3.30;;;8.00;99.90;;;;;;480277;246;28421;-77
2023/03/09 08:22:46;;;;;;;12.33;3.20;;;8.00;99.90;;;;;;477076;248;28441;-77
2023/03/09 08:24:47;;;;;;;12.17;4.20;;;8.00;99.90;;;;;;480245;246;28471;-77
2023/03/09 08:26:49;;;;;;;13.93;3.53;;;8.00;99.90;;;;;;477070;248;27806;-77
2023/03/09 08:28:50;;;;;;;14.60;2.90;;;7.90;99.90;;;;;;480273;247;27921;-77
2023/03/09 08:30:51;;;;;;;13.40;3.50;;;7.90;99.90;;;;;;477108;248;27544;-78
2023/03/09 08:32:53;;;;;;;13.43;3.03;;;8.00;99.90;;;;;;480262;246;27906;-77
2023/03/09 08:34:54;;;;;;;15.43;3.00;;;8.00;99.90;;;;;;477045;248;27904;-77
2023/03/09 08:36:55;;;;;;;11.83;3.00;;;8.10;99.90;;;;;;480271;246;27909;-77
2023/03/09 08:38:56;;;;;;;13.27;3.37;;;8.10;99.90;;;;;;477060;248;27858;-77
2023/03/09 08:40:58;;;;;;;17.97;3.30;;;8.10;99.90;;;;;;480266;246;27865;-77
2023/03/09 08:42:59;;;;;;;12.40;2.90;;;8.20;99.90;;;;;;477074;248;27703;-77
2023/03/09 08:45:00;;;;;;;21.13;3.80;;;8.20;99.90;;;;;;480279;246;28322;-78
2023/03/09 08:47:02;;;;;;;10.33;3.13;;;8.20;99.90;;;;;;477091;248;28397;-78
2023/03/09 08:49:03;;;;;;;10.50;3.43;;;8.20;99.90;;;;;;480255;246;27974;-78
2023/03/09 08:51:05;;;;;;;15.90;3.63;;;8.20;99.90;;;;;;477065;248;28102;-76
2023/03/09 08:53:05;;;;;;;16.43;3.37;;;8.30;99.90;;;;;;480212;247;28024;-77
2023/03/09 08:55:06;;;;;;;16.73;3.07;;;8.30;99.90;;;;;;477079;249;27872;-77
2023/03/09 08:57:08;;;;;;;22.17;3.50;;;8.30;99.90;;;;;;480262;246;27900;-77
2023/03/09 08:59:09;;;;;;;21.63;3.10;;;8.30;99.90;;;;;;477046;248;27873;-77
2023/03/09 09:01:10;;;;;;;14.87;3.30;;;8.30;99.90;;;;;;480274;246;27922;-77
2023/03/09 09:03:11;;;;;;;14.83;3.00;;;8.30;99.90;;;;;;477086;248;27987;-78
2023/03/09 09:05:13;;;;;;;16.10;3.43;;;8.30;99.90;;;;;;480224;246;27865;-77
2023/03/09 09:07:14;;;;;;;12.40;2.80;;;8.30;99.90;;;;;;477064;248;27780;-78
2023/03/09 09:09:15;;;;;;;12.27;2.50;;;8.40;99.90;;;;;;480241;247;28175;-77
2023/03/09 09:11:16;;;;;;;15.63;3.30;;;8.40;99.90;;;;;;480235;247;28495;-78
2023/03/09 09:13:18;;;;;;;16.53;2.93;;;8.50;99.90;;;;;;477097;248;28426;-78
2023/03/09 09:15:19;;;;;;;12.47;2.70;;;8.50;99.90;;;;;;480246;246;28018;-78
2023/03/09 09:17:20;;;;;;;15.87;3.20;;;8.40;99.90;;;;;;477059;248;27467;-77
2023/03/09 09:19:22;;;;;;;15.60;3.80;;;8.40;99.90;;;;;;480224;247;27751;-77
2023/03/09 09:21:23;;;;;;;11.83;2.77;;;8.40;99.90;;;;;;477050;248;27478;-78
2023/03/09 09:23:24;;;;;;;14.37;3.07;;;8.40;99.90;;;;;;480242;246;27794;-76
2023/03/09 09:25:25;;;;;;;13.83;3.00;;;8.40;99.90;;;;;;477057;248;27832;-77
2023/03/09 09:27:26;;;;;;;16.33;3.37;;;8.40;99.90;;;;;;480235;247;27997;-78
2023/03/09 09:29:28;;;;;;;16.33;3.27;;;8.50;99.90;;;;;;477017;248;27816;-77
2023/03/09 09:31:29;;;;;;;12.77;3.43;;;8.50;99.90;;;;;;480242;246;27797;-77
2023/03/09 09:33:30;;;;;;;11.03;2.90;;;8.50;99.90;;;;;;477071;248;28022;-77
2023/03/09 09:35:31;;;;;;;12.17;3.40;;;8.60;99.90;;;;;;480266;246;28326;-78
2023/03/09 09:37:33;;;;;;;15.93;3.30;;;8.70;99.90;;;;;;477052;248;28287;-78
2023/03/09 09:39:34;;;;;;;17.33;3.33;;;8.60;99.90;;;;;;480199;246;28392;-77
2023/03/09 09:41:35;;;;;;;13.90;3.67;;;8.60;99.90;;;;;;477041;248;27552;-77
2023/03/09 09:43:36;;;;;;;13.87;3.00;;;8.60;99.90;;;;;;480295;246;27782;-77
2023/03/09 09:45:43;;;;;;;9.70;2.83;;;8.70;99.90;;;;;;477059;247;27766;-77
2023/03/09 09:47:39;;;;;;;9.10;2.80;;;8.70;99.90;;;;;;479922;247;27874;-78
2023/03/09 09:49:41;;;;;;;11.83;3.13;;;8.60;99.90;;;;;;480239;247;27753;-78
2023/03/09 09:51:41;;;;;;;13.20;4.20;;;8.60;99.90;;;;;;477041;248;27811;-77
2023/03/09 09:53:43;;;;;;;15.30;4.00;;;8.60;99.90;;;;;;480265;246;28426;-78
2023/03/09 09:55:44;;;;;;;10.27;3.03;;;8.60;99.90;;;;;;477079;248;28153;-77
2023/03/09 09:57:45;;;;;;;13.10;3.53;;;8.60;99.90;;;;;;480245;246;27792;-77
2023/03/09 09:59:46;;;;;;;8.40;3.03;;;8.70;99.90;;;;;;477084;248;27945;-77
2023/03/09 10:01:48;;;;;;;11.40;2.93;;;8.70;99.90;;;;;;480263;246;27850;-78
2023/03/09 10:03:49;;;;;;;11.40;3.67;;;8.70;99.90;;;;;;477080;248;27721;-77
2023/03/09 10:05:50;;;;;;;11.03;3.37;;;8.80;99.90;;;;;;480280;247;27744;-78
2023/03/09 10:07:51;;;;;;;11.97;3.80;;;8.80;99.90;;;;;;477096;248;27832;-78
2023/03/09 10:09:53;;;;;;;8.63;3.03;;;8.80;99.90;;;;;;480294;246;27843;-78
2023/03/09 10:11:54;;;;;;;14.33;3.93;;;8.80;99.90;;;;;;477077;248;27601;-77
2023/03/09 10:13:56;;;;;;;9.80;3.47;;;8.80;99.90;;;;;;480283;246;27987;-78
2023/03/09 10:15:56;;;;;;;11.57;3.57;;;8.80;99.90;;;;;;477077;248;27836;-78
2023/03/09 10:17:58;;;;;;;9.37;3.20;;;8.80;99.90;;;;;;480281;246;28019;-76
2023/03/09 10:19:59;;;;;;;12.53;3.73;;;8.80;99.90;;;;;;480274;247;28300;-78
2023/03/09 10:22:00;;;;;;;16.27;4.40;;;8.90;99.90;;;;;;477087;248;28308;-78
2023/03/09 10:24:01;;;;;;;8.23;3.30;;;8.90;99.90;;;;;;480255;245;28270;-78
2023/03/09 10:26:03;;;;;;;13.60;3.60;;;8.90;99.90;;;;;;477051;248;27637;-77
2023/03/09 10:28:04;;;;;;;6.27;2.90;;;8.90;99.90;;;;;;480236;246;27974;-77
2023/03/09 10:30:05;;;;;;;11.07;3.50;;;8.90;99.90;;;;;;477056;248;27865;-77
2023/03/09 10:32:06;;;;;;;11.50;3.60;;;9.00;99.90;;;;;;480228;246;27578;-78
2023/03/09 10:34:08;;;;;;;8.87;4.27;;;9.00;99.90;;;;;;477064;248;27685;-78
2023/03/09 10:36:10;;;;;;;11.97;4.00;;;8.90;99.90;;;;;;480239;246;27922;-77